sensor_id;sensor_type;location;lat;lon;timestamp;P1;durP1;ratioP1;P2;durP2;ratioP2
79338;SDS011;68809;41.712;44.768;2023-04-25T00:01:33;1.33;;;0.40;;
79338;SDS011;68809;41.712;44.768;2023-04-25T00:04:01;1.67;;;0.50;;
79338;SDS011;68809;41.712;44.768;2023-04-25T00:06:29;1.50;;;0.30;;
79338;SDS011;68809;41.712;44.768;2023-04-25T00:08:55;1.40;;;0.40;;
79338;SDS011;68809;41.712;44.768;2023-04-25T00:11:22;1.40;;;0.40;;
79338;SDS011;68809;41.712;44.768;2023-04-25T00:13:49;1.60;;;0.40;;
79338;SDS011;68809;41.712;44.768;2023-04-25T00:16:18;1.02;;;0.40;;
79338;SDS011;68809;41.712;44.768;2023-04-25T00:18:44;0.90;;;0.30;;
79338;SDS011;68809;41.712;44.768;2023-04-25T00:21:17;0.98;;;0.30;;
79338;SDS011;68809;41.712;44.768;2023-04-25T00:23:45;1.30;;;0.40;;
79338;SDS011;68809;41.712;44.768;2023-04-25T00:26:12;1.30;;;0.30;;
79338;SDS011;68809;41.712;44.768;2023-04-25T00:28:39;1.15;;;0.30;;
79338;SDS011;68809;41.712;44.768;2023-04-25T00:31:06;0.90;;;0.30;;
79338;SDS011;68809;41.712;44.768;2023-04-25T00:33:32;0.82;;;0.30;;
79338;SDS011;68809;41.712;44.768;2023-04-25T00:35:59;1.17;;;0.40;;
79338;SDS011;68809;41.712;44.768;2023-04-25T00:38:25;1.30;;;0.40;;
79338;SDS011;68809;41.712;44.768;2023-04-25T00:40:51;2.35;;;0.40;;
79338;SDS011;68809;41.712;44.768;2023-04-25T00:43:18;0.90;;;0.30;;
79338;SDS011;68809;41.712;44.768;2023-04-25T00:45:45;1.50;;;0.40;;
79338;SDS011;68809;41.712;44.768;2023-04-25T00:48:13;1.15;;;0.40;;
79338;SDS011;68809;41.712;44.768;2023-04-25T00:50:40;0.77;;;0.30;;
79338;SDS011;68809;41.712;44.768;2023-04-25T00:53:07;2.08;;;0.50;;
79338;SDS011;68809;41.712;44.768;2023-04-25T00:55:35;1.50;;;0.40;;
79338;SDS011;68809;41.712;44.768;2023-04-25T00:58:01;1.50;;;0.50;;
79338;SDS011;68809;41.712;44.768;2023-04-25T01:00:28;1.40;;;0.40;;
79338;SDS011;68809;41.712;44.768;2023-04-25T01:02:54;1.45;;;0.40;;
79338;SDS011;68809;41.712;44.768;2023-04-25T01:05:20;1.00;;;0.40;;
79338;SDS011;68809;41.712;44.768;2023-04-25T01:07:47;1.77;;;0.40;;
79338;SDS011;68809;41.712;44.768;2023-04-25T01:10:13;1.33;;;0.40;;
79338;SDS011;68809;41.712;44.768;2023-04-25T01:12:40;2.20;;;0.60;;
79338;SDS011;68809;41.712;44.768;2023-04-25T01:15:07;1.08;;;0.38;;
79338;SDS011;68809;41.712;44.768;2023-04-25T01:17:34;2.28;;;0.50;;
79338;SDS011;68809;41.712;44.768;2023-04-25T01:20:03;2.00;;;0.40;;
79338;SDS011;68809;41.712;44.768;2023-04-25T01:22:33;1.63;;;0.40;;
79338;SDS011;68809;41.712;44.768;2023-04-25T01:25:00;2.13;;;0.50;;
79338;SDS011;68809;41.712;44.768;2023-04-25T01:27:26;1.83;;;0.40;;
79338;SDS011;68809;41.712;44.768;2023-04-25T01:29:54;1.42;;;0.40;;
79338;SDS011;68809;41.712;44.768;2023-04-25T01:32:22;1.07;;;0.40;;
79338;SDS011;68809;41.712;44.768;2023-04-25T01:34:49;1.17;;;0.30;;
79338;SDS011;68809;41.712;44.768;2023-04-25T01:37:16;0.70;;;0.30;;
79338;SDS011;68809;41.712;44.768;2023-04-25T01:39:44;2.35;;;0.40;;
79338;SDS011;68809;41.712;44.768;2023-04-25T01:42:10;0.93;;;0.30;;
79338;SDS011;68809;41.712;44.768;2023-04-25T01:44:38;1.20;;;0.40;;
79338;SDS011;68809;41.712;44.768;2023-04-25T01:47:05;0.80;;;0.30;;
79338;SDS011;68809;41.712;44.768;2023-04-25T01:49:31;1.60;;;0.40;;
79338;SDS011;68809;41.712;44.768;2023-04-25T01:51:58;2.40;;;0.32;;
79338;SDS011;68809;41.712;44.768;2023-04-25T01:54:25;1.27;;;0.40;;
79338;SDS011;68809;41.712;44.768;2023-04-25T01:56:51;0.90;;;0.30;;
79338;SDS011;68809;41.712;44.768;2023-04-25T01:59:19;0.73;;;0.30;;
79338;SDS011;68809;41.712;44.768;2023-04-25T02:02:05;1.98;;;0.32;;
79338;SDS011;68809;41.712;44.768;2023-04-25T02:04:34;1.00;;;0.30;;
79338;SDS011;68809;41.712;44.768;2023-04-25T02:07:01;1.00;;;0.30;;
79338;SDS011;68809;41.712;44.768;2023-04-25T02:09:38;1.10;;;0.40;;
79338;SDS011;68809;41.712;44.768;2023-04-25T02:12:07;0.95;;;0.35;;
79338;SDS011;68809;41.712;44.768;2023-04-25T02:14:53;1.10;;;0.40;;
79338;SDS011;68809;41.712;44.768;2023-04-25T02:17:35;1.20;;;0.40;;
79338;SDS011;68809;41.712;44.768;2023-04-25T02:20:01;1.48;;;0.47;;
79338;SDS011;68809;41.712;44.768;2023-04-25T02:22:29;1.00;;;0.30;;
79338;SDS011;68809;41.712;44.768;2023-04-25T02:24:56;0.90;;;0.30;;
79338;SDS011;68809;41.712;44.768;2023-04-25T02:27:22;1.33;;;0.40;;
79338;SDS011;68809;41.712;44.768;2023-04-25T02:29:49;1.40;;;0.40;;
79338;SDS011;68809;41.712;44.768;2023-04-25T02:32:15;1.10;;;0.40;;
79338;SDS011;68809;41.712;44.768;2023-04-25T02:34:41;1.27;;;0.40;;
79338;SDS011;68809;41.712;44.768;2023-04-25T02:37:07;1.00;;;0.40;;
79338;SDS011;68809;41.712;44.768;2023-04-25T02:39:33;1.20;;;0.40;;
79338;SDS011;68809;41.712;44.768;2023-04-25T02:42:00;1.20;;;0.40;;
79338;SDS011;68809;41.712;44.768;2023-04-25T02:44:29;1.20;;;0.40;;
79338;SDS011;68809;41.712;44.768;2023-04-25T02:46:55;1.47;;;0.50;;
79338;SDS011;68809;41.712;44.768;2023-04-25T02:49:23;1.35;;;0.40;;
79338;SDS011;68809;41.712;44.768;2023-04-25T02:51:49;1.70;;;0.50;;
79338;SDS011;68809;41.712;44.768;2023-04-25T02:54:15;1.20;;;0.40;;
79338;SDS011;68809;41.712;44.768;2023-04-25T02:56:46;1.05;;;0.40;;
79338;SDS011;68809;41.712;44.768;2023-04-25T02:59:18;1.20;;;0.50;;
79338;SDS011;68809;41.712;44.768;2023-04-25T03:01:44;1.40;;;0.50;;
79338;SDS011;68809;41.712;44.768;2023-04-25T03:04:10;1.50;;;0.50;;
79338;SDS011;68809;41.712;44.768;2023-04-25T03:06:37;1.10;;;0.50;;
79338;SDS011;68809;41.712;44.768;2023-04-25T03:09:03;1.67;;;0.50;;
79338;SDS011;68809;41.712;44.768;2023-04-25T03:11:30;1.47;;;0.50;;
79338;SDS011;68809;41.712;44.768;2023-04-25T03:13:56;1.40;;;0.50;;
79338;SDS011;68809;41.712;44.768;2023-04-25T03:16:23;1.20;;;0.50;;
79338;SDS011;68809;41.712;44.768;2023-04-25T03:18:49;1.25;;;0.47;;
79338;SDS011;68809;41.712;44.768;2023-04-25T03:21:17;1.50;;;0.60;;
79338;SDS011;68809;41.712;44.768;2023-04-25T03:23:43;1.30;;;0.40;;
79338;SDS011;68809;41.712;44.768;2023-04-25T03:26:09;1.25;;;0.40;;
79338;SDS011;68809;41.712;44.768;2023-04-25T03:28:35;1.92;;;0.60;;
79338;SDS011;68809;41.712;44.768;2023-04-25T03:31:02;1.55;;;0.60;;
79338;SDS011;68809;41.712;44.768;2023-04-25T03:33:29;1.95;;;0.50;;
79338;SDS011;68809;41.712;44.768;2023-04-25T03:35:56;1.43;;;0.50;;
79338;SDS011;68809;41.712;44.768;2023-04-25T03:38:22;1.70;;;0.80;;
79338;SDS011;68809;41.712;44.768;2023-04-25T03:40:49;1.95;;;1.27;;
79338;SDS011;68809;41.712;44.768;2023-04-25T03:43:23;2.10;;;1.60;;
79338;SDS011;68809;41.712;44.768;2023-04-25T03:45:56;2.60;;;2.40;;
79338;SDS011;68809;41.712;44.768;2023-04-25T03:48:23;2.00;;;1.70;;
79338;SDS011;68809;41.712;44.768;2023-04-25T03:50:51;2.50;;;1.95;;
79338;SDS011;68809;41.712;44.768;2023-04-25T03:53:18;2.00;;;1.60;;
79338;SDS011;68809;41.712;44.768;2023-04-25T03:56:08;2.25;;;1.58;;
79338;SDS011;68809;41.712;44.768;2023-04-25T03:58:37;2.03;;;1.40;;
79338;SDS011;68809;41.712;44.768;2023-04-25T04:01:03;1.80;;;0.90;;
79338;SDS011;68809;41.712;44.768;2023-04-25T04:03:34;1.70;;;0.90;;
79338;SDS011;68809;41.712;44.768;2023-04-25T04:06:03;1.90;;;1.00;;
79338;SDS011;68809;41.712;44.768;2023-04-25T04:08:32;2.00;;;0.93;;
79338;SDS011;68809;41.712;44.768;2023-04-25T04:10:58;1.60;;;0.70;;
79338;SDS011;68809;41.712;44.768;2023-04-25T04:13:26;1.80;;;0.80;;
79338;SDS011;68809;41.712;44.768;2023-04-25T04:15:53;2.58;;;0.70;;
79338;SDS011;68809;41.712;44.768;2023-04-25T04:18:19;3.25;;;0.70;;
79338;SDS011;68809;41.712;44.768;2023-04-25T04:20:46;1.75;;;0.68;;
79338;SDS011;68809;41.712;44.768;2023-04-25T04:23:12;1.73;;;0.60;;
79338;SDS011;68809;41.712;44.768;2023-04-25T04:25:39;1.80;;;0.70;;
79338;SDS011;68809;41.712;44.768;2023-04-25T04:28:32;1.83;;;0.80;;
79338;SDS011;68809;41.712;44.768;2023-04-25T04:31:04;2.28;;;0.70;;
79338;SDS011;68809;41.712;44.768;2023-04-25T04:33:30;1.63;;;0.60;;
79338;SDS011;68809;41.712;44.768;2023-04-25T04:36:00;2.80;;;0.77;;
79338;SDS011;68809;41.712;44.768;2023-04-25T04:38:29;1.87;;;0.50;;
79338;SDS011;68809;41.712;44.768;2023-04-25T04:40:58;1.65;;;0.57;;
79338;SDS011;68809;41.712;44.768;2023-04-25T04:43:33;1.40;;;0.50;;
79338;SDS011;68809;41.712;44.768;2023-04-25T04:46:26;2.22;;;0.60;;
79338;SDS011;68809;41.712;44.768;2023-04-25T04:49:16;1.83;;;0.50;;
79338;SDS011;68809;41.712;44.768;2023-04-25T04:51:55;1.67;;;0.60;;
79338;SDS011;68809;41.712;44.768;2023-04-25T04:54:53;1.67;;;0.60;;
79338;SDS011;68809;41.712;44.768;2023-04-25T04:57:42;2.75;;;0.68;;
79338;SDS011;68809;41.712;44.768;2023-04-25T05:00:19;2.85;;;0.60;;
79338;SDS011;68809;41.712;44.768;2023-04-25T05:03:09;2.03;;;0.50;;
79338;SDS011;68809;41.712;44.768;2023-04-25T05:06:06;1.43;;;0.53;;
79338;SDS011;68809;41.712;44.768;2023-04-25T05:08:51;1.30;;;0.50;;
79338;SDS011;68809;41.712;44.768;2023-04-25T05:11:18;1.30;;;0.43;;
79338;SDS011;68809;41.712;44.768;2023-04-25T05:13:58;1.52;;;0.50;;
79338;SDS011;68809;41.712;44.768;2023-04-25T05:16:40;2.40;;;0.60;;
79338;SDS011;68809;41.712;44.768;2023-04-25T05:19:19;1.43;;;0.50;;
79338;SDS011;68809;41.712;44.768;2023-04-25T05:22:20;1.50;;;0.50;;
79338;SDS011;68809;41.712;44.768;2023-04-25T05:24:58;2.28;;;0.50;;
79338;SDS011;68809;41.712;44.768;2023-04-25T05:27:37;1.50;;;0.50;;
79338;SDS011;68809;41.712;44.768;2023-04-25T05:30:26;1.50;;;0.55;;
79338;SDS011;68809;41.712;44.768;2023-04-25T05:33:17;3.93;;;0.80;;
79338;SDS011;68809;41.712;44.768;2023-04-25T05:35:44;2.08;;;0.60;;
79338;SDS011;68809;41.712;44.768;2023-04-25T05:38:11;2.05;;;0.60;;
79338;SDS011;68809;41.712;44.768;2023-04-25T05:41:01;2.38;;;0.60;;
79338;SDS011;68809;41.712;44.768;2023-04-25T05:43:56;1.77;;;0.60;;
79338;SDS011;68809;41.712;44.768;2023-04-25T05:46:31;1.43;;;0.50;;
79338;SDS011;68809;41.712;44.768;2023-04-25T05:49:16;2.20;;;0.60;;
79338;SDS011;68809;41.712;44.768;2023-04-25T05:51:58;1.48;;;0.50;;
79338;SDS011;68809;41.712;44.768;2023-04-25T05:54:39;1.85;;;0.60;;
79338;SDS011;68809;41.712;44.768;2023-04-25T05:57:06;2.35;;;0.93;;
79338;SDS011;68809;41.712;44.768;2023-04-25T05:59:32;1.87;;;0.60;;
79338;SDS011;68809;41.712;44.768;2023-04-25T06:01:59;1.38;;;0.50;;
79338;SDS011;68809;41.712;44.768;2023-04-25T06:04:27;2.17;;;0.60;;
79338;SDS011;68809;41.712;44.768;2023-04-25T06:06:53;2.42;;;0.60;;
79338;SDS011;68809;41.712;44.768;2023-04-25T06:09:21;1.58;;;0.60;;
79338;SDS011;68809;41.712;44.768;2023-04-25T06:11:48;2.03;;;0.70;;
79338;SDS011;68809;41.712;44.768;2023-04-25T06:14:14;1.60;;;0.60;;
79338;SDS011;68809;41.712;44.768;2023-04-25T06:16:46;3.13;;;0.60;;
79338;SDS011;68809;41.712;44.768;2023-04-25T06:19:12;2.10;;;1.00;;
79338;SDS011;68809;41.712;44.768;2023-04-25T06:21:39;2.00;;;0.70;;
79338;SDS011;68809;41.712;44.768;2023-04-25T06:24:05;1.97;;;0.67;;
79338;SDS011;68809;41.712;44.768;2023-04-25T06:26:31;1.77;;;0.60;;
79338;SDS011;68809;41.712;44.768;2023-04-25T06:28:58;2.47;;;0.70;;
79338;SDS011;68809;41.712;44.768;2023-04-25T06:31:24;1.60;;;0.50;;
79338;SDS011;68809;41.712;44.768;2023-04-25T06:33:51;1.30;;;0.50;;
79338;SDS011;68809;41.712;44.768;2023-04-25T06:36:20;2.30;;;0.50;;
79338;SDS011;68809;41.712;44.768;2023-04-25T06:38:53;2.85;;;1.00;;
79338;SDS011;68809;41.712;44.768;2023-04-25T06:41:20;2.47;;;0.80;;
79338;SDS011;68809;41.712;44.768;2023-04-25T06:43:46;2.22;;;0.70;;
79338;SDS011;68809;41.712;44.768;2023-04-25T06:46:23;2.25;;;0.80;;
79338;SDS011;68809;41.712;44.768;2023-04-25T06:48:49;1.80;;;0.70;;
79338;SDS011;68809;41.712;44.768;2023-04-25T06:51:18;2.40;;;0.80;;
79338;SDS011;68809;41.712;44.768;2023-04-25T06:53:45;2.30;;;0.80;;
79338;SDS011;68809;41.712;44.768;2023-04-25T06:56:22;2.33;;;0.73;;
79338;SDS011;68809;41.712;44.768;2023-04-25T06:58:56;3.45;;;0.90;;
79338;SDS011;68809;41.712;44.768;2023-04-25T07:01:36;3.60;;;0.80;;
79338;SDS011;68809;41.712;44.768;2023-04-25T07:04:07;1.80;;;0.60;;
79338;SDS011;68809;41.712;44.768;2023-04-25T07:06:38;2.03;;;0.60;;
79338;SDS011;68809;41.712;44.768;2023-04-25T07:09:08;1.90;;;0.70;;
79338;SDS011;68809;41.712;44.768;2023-04-25T07:11:39;2.55;;;0.80;;
79338;SDS011;68809;41.712;44.768;2023-04-25T07:14:05;2.53;;;0.90;;
79338;SDS011;68809;41.712;44.768;2023-04-25T07:16:33;1.90;;;0.70;;
79338;SDS011;68809;41.712;44.768;2023-04-25T07:19:00;2.40;;;0.80;;
79338;SDS011;68809;41.712;44.768;2023-04-25T07:21:27;2.20;;;0.80;;
79338;SDS011;68809;41.712;44.768;2023-04-25T07:23:54;2.00;;;0.60;;
79338;SDS011;68809;41.712;44.768;2023-04-25T07:26:25;2.20;;;0.60;;
79338;SDS011;68809;41.712;44.768;2023-04-25T07:29:10;2.97;;;0.90;;
79338;SDS011;68809;41.712;44.768;2023-04-25T07:31:36;2.92;;;0.80;;
79338;SDS011;68809;41.712;44.768;2023-04-25T07:34:03;2.63;;;0.80;;
79338;SDS011;68809;41.712;44.768;2023-04-25T07:36:30;3.13;;;0.90;;
79338;SDS011;68809;41.712;44.768;2023-04-25T07:38:57;2.23;;;0.87;;
79338;SDS011;68809;41.712;44.768;2023-04-25T07:41:23;1.55;;;0.60;;
79338;SDS011;68809;41.712;44.768;2023-04-25T07:43:49;1.50;;;0.60;;
79338;SDS011;68809;41.712;44.768;2023-04-25T07:46:16;2.33;;;0.90;;
79338;SDS011;68809;41.712;44.768;2023-04-25T07:48:42;3.45;;;1.00;;
79338;SDS011;68809;41.712;44.768;2023-04-25T07:51:09;1.90;;;0.80;;
79338;SDS011;68809;41.712;44.768;2023-04-25T07:53:36;1.98;;;0.73;;
79338;SDS011;68809;41.712;44.768;2023-04-25T07:56:08;2.85;;;0.77;;
79338;SDS011;68809;41.712;44.768;2023-04-25T07:58:38;1.85;;;0.70;;
79338;SDS011;68809;41.712;44.768;2023-04-25T08:01:07;2.40;;;0.90;;
79338;SDS011;68809;41.712;44.768;2023-04-25T08:04:05;2.30;;;0.70;;
79338;SDS011;68809;41.712;44.768;2023-04-25T08:07:04;2.25;;;0.88;;
79338;SDS011;68809;41.712;44.768;2023-04-25T08:09:38;2.00;;;0.70;;
79338;SDS011;68809;41.712;44.768;2023-04-25T08:12:09;4.10;;;1.00;;
79338;SDS011;68809;41.712;44.768;2023-04-25T08:14:35;3.42;;;0.80;;
79338;SDS011;68809;41.712;44.768;2023-04-25T08:17:03;2.40;;;0.70;;
79338;SDS011;68809;41.712;44.768;2023-04-25T08:19:31;2.13;;;0.70;;
79338;SDS011;68809;41.712;44.768;2023-04-25T08:21:58;2.50;;;0.70;;
79338;SDS011;68809;41.712;44.768;2023-04-25T08:24:34;2.03;;;0.70;;
79338;SDS011;68809;41.712;44.768;2023-04-25T08:27:00;2.08;;;0.80;;
79338;SDS011;68809;41.712;44.768;2023-04-25T08:29:28;1.80;;;0.77;;
79338;SDS011;68809;41.712;44.768;2023-04-25T08:31:54;1.55;;;0.50;;
79338;SDS011;68809;41.712;44.768;2023-04-25T08:34:21;2.00;;;0.80;;
79338;SDS011;68809;41.712;44.768;2023-04-25T08:36:49;2.28;;;0.80;;
79338;SDS011;68809;41.712;44.768;2023-04-25T08:39:27;2.35;;;0.90;;
79338;SDS011;68809;41.712;44.768;2023-04-25T08:42:16;3.47;;;1.07;;
79338;SDS011;68809;41.712;44.768;2023-04-25T08:44:45;2.67;;;1.00;;
79338;SDS011;68809;41.712;44.768;2023-04-25T08:47:12;2.25;;;0.90;;
79338;SDS011;68809;41.712;44.768;2023-04-25T08:49:44;2.20;;;0.80;;
79338;SDS011;68809;41.712;44.768;2023-04-25T08:52:12;2.55;;;1.00;;
79338;SDS011;68809;41.712;44.768;2023-04-25T08:54:43;2.67;;;0.90;;
79338;SDS011;68809;41.712;44.768;2023-04-25T08:57:13;2.40;;;1.00;;
79338;SDS011;68809;41.712;44.768;2023-04-25T08:59:41;3.25;;;1.10;;
79338;SDS011;68809;41.712;44.768;2023-04-25T09:02:11;3.35;;;1.10;;
79338;SDS011;68809;41.712;44.768;2023-04-25T09:04:46;3.78;;;1.33;;
79338;SDS011;68809;41.712;44.768;2023-04-25T09:07:12;2.93;;;1.30;;
79338;SDS011;68809;41.712;44.768;2023-04-25T09:09:41;3.28;;;1.10;;
79338;SDS011;68809;41.712;44.768;2023-04-25T09:12:08;2.85;;;1.23;;
79338;SDS011;68809;41.712;44.768;2023-04-25T09:14:34;2.97;;;1.20;;
79338;SDS011;68809;41.712;44.768;2023-04-25T09:17:01;3.80;;;1.20;;
79338;SDS011;68809;41.712;44.768;2023-04-25T09:19:41;3.00;;;1.20;;
79338;SDS011;68809;41.712;44.768;2023-04-25T09:22:20;3.03;;;1.20;;
79338;SDS011;68809;41.712;44.768;2023-04-25T09:24:50;5.13;;;1.58;;
79338;SDS011;68809;41.712;44.768;2023-04-25T09:27:18;2.58;;;1.10;;
79338;SDS011;68809;41.712;44.768;2023-04-25T09:29:48;2.80;;;1.27;;
79338;SDS011;68809;41.712;44.768;2023-04-25T09:32:26;5.50;;;1.50;;
79338;SDS011;68809;41.712;44.768;2023-04-25T09:34:56;5.55;;;1.50;;
79338;SDS011;68809;41.712;44.768;2023-04-25T09:37:27;3.10;;;1.20;;
79338;SDS011;68809;41.712;44.768;2023-04-25T09:40:17;3.60;;;1.30;;
79338;SDS011;68809;41.712;44.768;2023-04-25T09:43:08;3.15;;;1.50;;
79338;SDS011;68809;41.712;44.768;2023-04-25T09:45:49;3.47;;;1.20;;
79338;SDS011;68809;41.712;44.768;2023-04-25T09:48:25;2.75;;;0.90;;
79338;SDS011;68809;41.712;44.768;2023-04-25T09:51:12;3.25;;;1.30;;
79338;SDS011;68809;41.712;44.768;2023-04-25T09:53:43;3.40;;;1.00;;
79338;SDS011;68809;41.712;44.768;2023-04-25T09:56:38;3.60;;;1.40;;
79338;SDS011;68809;41.712;44.768;2023-04-25T09:59:07;2.90;;;1.40;;
79338;SDS011;68809;41.712;44.768;2023-04-25T10:01:39;4.05;;;1.25;;
79338;SDS011;68809;41.712;44.768;2023-04-25T10:04:12;3.35;;;1.00;;
79338;SDS011;68809;41.712;44.768;2023-04-25T10:06:48;3.75;;;1.42;;
79338;SDS011;68809;41.712;44.768;2023-04-25T10:09:16;3.30;;;1.13;;
79338;SDS011;68809;41.712;44.768;2023-04-25T10:11:46;3.63;;;1.50;;
79338;SDS011;68809;41.712;44.768;2023-04-25T10:14:13;3.45;;;1.30;;
79338;SDS011;68809;41.712;44.768;2023-04-25T10:16:40;3.35;;;1.40;;
79338;SDS011;68809;41.712;44.768;2023-04-25T10:19:11;3.53;;;1.23;;
79338;SDS011;68809;41.712;44.768;2023-04-25T10:21:52;2.97;;;1.10;;
79338;SDS011;68809;41.712;44.768;2023-04-25T10:24:22;3.37;;;1.13;;
79338;SDS011;68809;41.712;44.768;2023-04-25T10:26:49;2.85;;;1.20;;
79338;SDS011;68809;41.712;44.768;2023-04-25T10:29:23;3.38;;;1.20;;
79338;SDS011;68809;41.712;44.768;2023-04-25T10:31:51;3.30;;;1.20;;
79338;SDS011;68809;41.712;44.768;2023-04-25T10:34:24;4.63;;;1.70;;
79338;SDS011;68809;41.712;44.768;2023-04-25T10:37:14;5.80;;;1.60;;
79338;SDS011;68809;41.712;44.768;2023-04-25T10:39:41;5.53;;;1.55;;
79338;SDS011;68809;41.712;44.768;2023-04-25T10:42:13;5.03;;;1.70;;
79338;SDS011;68809;41.712;44.768;2023-04-25T10:44:40;2.85;;;1.08;;
79338;SDS011;68809;41.712;44.768;2023-04-25T10:47:36;2.78;;;1.20;;
79338;SDS011;68809;41.712;44.768;2023-04-25T10:50:07;5.77;;;1.33;;
79338;SDS011;68809;41.712;44.768;2023-04-25T10:52:40;3.47;;;1.08;;
79338;SDS011;68809;41.712;44.768;2023-04-25T10:55:07;3.13;;;0.90;;
79338;SDS011;68809;41.712;44.768;2023-04-25T11:00:16;4.68;;;1.35;;
79338;SDS011;68809;41.712;44.768;2023-04-25T11:02:46;2.70;;;1.43;;
79338;SDS011;68809;41.712;44.768;2023-04-25T11:05:29;4.63;;;1.40;;
79338;SDS011;68809;41.712;44.768;2023-04-25T11:08:02;2.63;;;1.30;;
79338;SDS011;68809;41.712;44.768;2023-04-25T11:10:32;3.03;;;1.33;;
79338;SDS011;68809;41.712;44.768;2023-04-25T11:13:01;3.42;;;1.10;;
79338;SDS011;68809;41.712;44.768;2023-04-25T11:15:28;2.50;;;1.10;;
79338;SDS011;68809;41.712;44.768;2023-04-25T11:17:54;2.97;;;1.40;;
79338;SDS011;68809;41.712;44.768;2023-04-25T11:20:21;3.75;;;1.00;;
79338;SDS011;68809;41.712;44.768;2023-04-25T11:22:48;2.97;;;0.90;;
79338;SDS011;68809;41.712;44.768;2023-04-25T11:25:14;2.75;;;1.08;;
79338;SDS011;68809;41.712;44.768;2023-04-25T11:27:51;3.57;;;0.90;;
79338;SDS011;68809;41.712;44.768;2023-04-25T11:30:19;2.47;;;0.90;;
79338;SDS011;68809;41.712;44.768;2023-04-25T11:32:46;3.85;;;1.00;;
79338;SDS011;68809;41.712;44.768;2023-04-25T11:35:13;4.18;;;1.45;;
79338;SDS011;68809;41.712;44.768;2023-04-25T11:37:39;2.95;;;1.30;;
79338;SDS011;68809;41.712;44.768;2023-04-25T11:40:06;2.70;;;1.20;;
79338;SDS011;68809;41.712;44.768;2023-04-25T11:42:38;3.38;;;0.93;;
79338;SDS011;68809;41.712;44.768;2023-04-25T11:45:05;2.05;;;0.88;;
79338;SDS011;68809;41.712;44.768;2023-04-25T11:47:33;3.95;;;1.10;;
79338;SDS011;68809;41.712;44.768;2023-04-25T11:50:00;2.22;;;0.98;;
79338;SDS011;68809;41.712;44.768;2023-04-25T11:52:40;3.53;;;1.30;;
79338;SDS011;68809;41.712;44.768;2023-04-25T11:55:13;3.60;;;1.20;;
79338;SDS011;68809;41.712;44.768;2023-04-25T11:57:40;2.95;;;0.98;;
79338;SDS011;68809;41.712;44.768;2023-04-25T12:00:11;3.42;;;1.10;;
79338;SDS011;68809;41.712;44.768;2023-04-25T12:02:51;2.65;;;0.88;;
79338;SDS011;68809;41.712;44.768;2023-04-25T12:05:23;2.00;;;0.90;;
79338;SDS011;68809;41.712;44.768;2023-04-25T12:07:50;2.00;;;0.90;;
79338;SDS011;68809;41.712;44.768;2023-04-25T12:10:17;2.10;;;0.80;;
79338;SDS011;68809;41.712;44.768;2023-04-25T12:12:47;3.13;;;1.15;;
79338;SDS011;68809;41.712;44.768;2023-04-25T12:15:14;3.17;;;0.90;;
79338;SDS011;68809;41.712;44.768;2023-04-25T12:17:46;2.60;;;1.20;;
79338;SDS011;68809;41.712;44.768;2023-04-25T12:20:15;3.58;;;1.30;;
79338;SDS011;68809;41.712;44.768;2023-04-25T12:22:43;2.58;;;1.00;;
79338;SDS011;68809;41.712;44.768;2023-04-25T12:25:57;4.60;;;0.90;;
79338;SDS011;68809;41.712;44.768;2023-04-25T12:28:09;2.67;;;1.00;;
79338;SDS011;68809;41.712;44.768;2023-04-25T12:30:52;3.37;;;1.10;;
79338;SDS011;68809;41.712;44.768;2023-04-25T12:33:18;2.17;;;1.00;;
79338;SDS011;68809;41.712;44.768;2023-04-25T12:35:45;4.78;;;1.20;;
79338;SDS011;68809;41.712;44.768;2023-04-25T12:38:11;3.05;;;1.00;;
79338;SDS011;68809;41.712;44.768;2023-04-25T12:40:37;2.95;;;1.10;;
79338;SDS011;68809;41.712;44.768;2023-04-25T12:43:03;3.43;;;1.00;;
79338;SDS011;68809;41.712;44.768;2023-04-25T12:45:30;2.88;;;1.08;;
79338;SDS011;68809;41.712;44.768;2023-04-25T12:47:56;4.90;;;1.00;;
79338;SDS011;68809;41.712;44.768;2023-04-25T12:50:22;2.60;;;1.05;;
79338;SDS011;68809;41.712;44.768;2023-04-25T12:52:48;2.65;;;1.10;;
79338;SDS011;68809;41.712;44.768;2023-04-25T12:55:14;3.13;;;1.17;;
79338;SDS011;68809;41.712;44.768;2023-04-25T12:57:41;2.42;;;0.95;;
79338;SDS011;68809;41.712;44.768;2023-04-25T13:00:07;3.75;;;0.93;;
79338;SDS011;68809;41.712;44.768;2023-04-25T13:02:40;2.78;;;0.95;;
79338;SDS011;68809;41.712;44.768;2023-04-25T13:05:06;2.95;;;1.00;;
79338;SDS011;68809;41.712;44.768;2023-04-25T13:07:33;2.80;;;1.20;;
79338;SDS011;68809;41.712;44.768;2023-04-25T13:10:00;2.70;;;1.15;;
79338;SDS011;68809;41.712;44.768;2023-04-25T13:12:29;3.42;;;1.33;;
79338;SDS011;68809;41.712;44.768;2023-04-25T13:14:56;2.75;;;0.90;;
79338;SDS011;68809;41.712;44.768;2023-04-25T13:17:22;2.90;;;1.17;;
79338;SDS011;68809;41.712;44.768;2023-04-25T13:19:48;2.33;;;0.87;;
79338;SDS011;68809;41.712;44.768;2023-04-25T13:22:15;3.50;;;1.20;;
79338;SDS011;68809;41.712;44.768;2023-04-25T13:24:43;2.20;;;0.90;;
79338;SDS011;68809;41.712;44.768;2023-04-25T13:27:10;3.97;;;0.85;;
79338;SDS011;68809;41.712;44.768;2023-04-25T13:29:36;2.55;;;0.95;;
79338;SDS011;68809;41.712;44.768;2023-04-25T13:32:03;3.33;;;1.20;;
79338;SDS011;68809;41.712;44.768;2023-04-25T13:34:30;2.78;;;1.00;;
79338;SDS011;68809;41.712;44.768;2023-04-25T13:36:56;3.00;;;1.30;;
79338;SDS011;68809;41.712;44.768;2023-04-25T13:39:23;2.60;;;1.23;;
79338;SDS011;68809;41.712;44.768;2023-04-25T13:41:49;2.60;;;0.95;;
79338;SDS011;68809;41.712;44.768;2023-04-25T13:44:18;2.60;;;1.03;;
79338;SDS011;68809;41.712;44.768;2023-04-25T13:46:45;3.67;;;1.20;;
79338;SDS011;68809;41.712;44.768;2023-04-25T13:49:12;3.75;;;1.20;;
79338;SDS011;68809;41.712;44.768;2023-04-25T13:51:48;2.78;;;1.20;;
79338;SDS011;68809;41.712;44.768;2023-04-25T13:54:15;3.55;;;1.25;;
79338;SDS011;68809;41.712;44.768;2023-04-25T13:56:41;3.70;;;1.27;;
79338;SDS011;68809;41.712;44.768;2023-04-25T13:59:07;2.70;;;1.00;;
79338;SDS011;68809;41.712;44.768;2023-04-25T14:01:34;2.10;;;0.90;;
79338;SDS011;68809;41.712;44.768;2023-04-25T14:04:01;4.05;;;1.00;;
79338;SDS011;68809;41.712;44.768;2023-04-25T14:06:30;3.50;;;1.30;;
79338;SDS011;68809;41.712;44.768;2023-04-25T14:08:57;2.43;;;1.00;;
79338;SDS011;68809;41.712;44.768;2023-04-25T14:11:26;3.50;;;1.30;;
79338;SDS011;68809;41.712;44.768;2023-04-25T14:13:52;2.58;;;1.00;;
79338;SDS011;68809;41.712;44.768;2023-04-25T14:16:18;2.25;;;0.90;;
79338;SDS011;68809;41.712;44.768;2023-04-25T14:18:45;3.22;;;1.30;;
79338;SDS011;68809;41.712;44.768;2023-04-25T14:21:11;3.07;;;1.30;;
79338;SDS011;68809;41.712;44.768;2023-04-25T14:23:38;2.50;;;1.20;;
79338;SDS011;68809;41.712;44.768;2023-04-25T14:26:04;2.63;;;1.40;;
79338;SDS011;68809;41.712;44.768;2023-04-25T14:28:31;3.88;;;1.30;;
79338;SDS011;68809;41.712;44.768;2023-04-25T14:30:57;3.10;;;1.20;;
79338;SDS011;68809;41.712;44.768;2023-04-25T14:33:23;2.97;;;1.27;;
79338;SDS011;68809;41.712;44.768;2023-04-25T14:35:50;3.25;;;1.20;;
79338;SDS011;68809;41.712;44.768;2023-04-25T14:38:16;3.83;;;1.38;;
79338;SDS011;68809;41.712;44.768;2023-04-25T14:40:43;2.92;;;1.27;;
79338;SDS011;68809;41.712;44.768;2023-04-25T14:43:09;3.88;;;1.30;;
79338;SDS011;68809;41.712;44.768;2023-04-25T14:45:35;2.33;;;0.90;;
79338;SDS011;68809;41.712;44.768;2023-04-25T14:48:02;3.45;;;1.20;;
79338;SDS011;68809;41.712;44.768;2023-04-25T14:50:28;2.70;;;1.25;;
79338;SDS011;68809;41.712;44.768;2023-04-25T14:52:54;2.50;;;1.10;;
79338;SDS011;68809;41.712;44.768;2023-04-25T14:55:24;2.85;;;1.20;;